sensor_id;sensor_type;location;lat;lon;timestamp;temperature;humidity
15625;DHT22;7912;51.376;6.126;2023-03-31T00:00:27;14.40;99.90
15625;DHT22;7912;51.376;6.126;2023-03-31T00:03:01;14.40;99.90
15625;DHT22;7912;51.376;6.126;2023-03-31T00:05:45;14.40;99.90
15625;DHT22;7912;51.376;6.126;2023-03-31T00:08:27;14.50;99.90
15625;DHT22;7912;51.376;6.126;2023-03-31T00:11:05;14.50;99.90
15625;DHT22;7912;51.376;6.126;2023-03-31T00:13:42;14.50;99.90
15625;DHT22;7912;51.376;6.126;2023-03-31T00:16:25;14.50;99.90
15625;DHT22;7912;51.376;6.126;2023-03-31T00:19:08;14.50;99.90
15625;DHT22;7912;51.376;6.126;2023-03-31T00:21:59;14.50;99.90
15625;DHT22;7912;51.376;6.126;2023-03-31T00:28:13;14.40;99.90
15625;DHT22;7912;51.376;6.126;2023-03-31T00:31:03;14.40;99.90
15625;DHT22;7912;51.376;6.126;2023-03-31T00:33:31;14.40;99.90
15625;DHT22;7912;51.376;6.126;2023-03-31T00:36:12;14.30;99.90
15625;DHT22;7912;51.376;6.126;2023-03-31T00:39:12;14.30;99.90
15625;DHT22;7912;51.376;6.126;2023-03-31T00:42:03;14.20;99.90
15625;DHT22;7912;51.376;6.126;2023-03-31T00:48:58;14.20;99.90
15625;DHT22;7912;51.376;6.126;2023-03-31T00:51:33;14.20;99.90
15625;DHT22;7912;51.376;6.126;2023-03-31T00:55:03;14.10;99.90
15625;DHT22;7912;51.376;6.126;2023-03-31T00:58:13;14.10;99.90
15625;DHT22;7912;51.376;6.126;2023-03-31T01:01:27;14.10;99.90
15625;DHT22;7912;51.376;6.126;2023-03-31T01:04:03;14.10;99.90
15625;DHT22;7912;51.376;6.126;2023-03-31T01:07:36;14.10;99.90
15625;DHT22;7912;51.376;6.126;2023-03-31T01:14:22;14.00;99.90
15625;DHT22;7912;51.376;6.126;2023-03-31T01:17:12;14.00;99.90
15625;DHT22;7912;51.376;6.126;2023-03-31T01:20:04;14.00;99.90
15625;DHT22;7912;51.376;6.126;2023-03-31T01:31:03;14.00;99.90
15625;DHT22;7912;51.376;6.126;2023-03-31T01:40:51;13.90;99.90
15625;DHT22;7912;51.376;6.126;2023-03-31T01:47:52;14.00;99.90
15625;DHT22;7912;51.376;6.126;2023-03-31T01:55:21;14.00;99.90
15625;DHT22;7912;51.376;6.126;2023-03-31T02:06:51;14.00;99.90
15625;DHT22;7912;51.376;6.126;2023-03-31T02:10:06;14.00;99.90
15625;DHT22;7912;51.376;6.126;2023-03-31T02:19:54;14.00;99.90
15625;DHT22;7912;51.376;6.126;2023-03-31T02:23:48;14.00;99.90
15625;DHT22;7912;51.376;6.126;2023-03-31T02:30:05;14.10;99.90
15625;DHT22;7912;51.376;6.126;2023-03-31T02:33:21;14.10;99.90
15625;DHT22;7912;51.376;6.126;2023-03-31T02:36:02;14.10;99.90
15625;DHT22;7912;51.376;6.126;2023-03-31T02:45:52;14.10;99.90
15625;DHT22;7912;51.376;6.126;2023-03-31T03:23:23;14.10;99.90
15625;DHT22;7912;51.376;6.126;2023-03-31T03:25:50;14.10;99.90
15625;DHT22;7912;51.376;6.126;2023-03-31T03:28:25;14.10;99.90
15625;DHT22;7912;51.376;6.126;2023-03-31T03:31:41;14.10;99.90
15625;DHT22;7912;51.376;6.126;2023-03-31T03:34:33;14.10;99.90
15625;DHT22;7912;51.376;6.126;2023-03-31T03:37:21;14.10;99.90
15625;DHT22;7912;51.376;6.126;2023-03-31T03:39:56;14.10;99.90
15625;DHT22;7912;51.376;6.126;2023-03-31T03:42:23;14.10;99.90
15625;DHT22;7912;51.376;6.126;2023-03-31T03:49:38;14.10;99.90
15625;DHT22;7912;51.376;6.126;2023-03-31T03:52:23;14.10;99.90
15625;DHT22;7912;51.376;6.126;2023-03-31T03:55:17;14.10;99.90
15625;DHT22;7912;51.376;6.126;2023-03-31T03:57:48;14.10;99.90
15625;DHT22;7912;51.376;6.126;2023-03-31T04:04:39;14.10;99.90
15625;DHT22;7912;51.376;6.126;2023-03-31T04:11:27;14.00;99.90
15625;DHT22;7912;51.376;6.126;2023-03-31T04:14:03;14.00;99.90
15625;DHT22;7912;51.376;6.126;2023-03-31T04:17:10;13.90;99.90
15625;DHT22;7912;51.376;6.126;2023-03-31T04:27:32;13.90;99.90
15625;DHT22;7912;51.376;6.126;2023-03-31T04:40:26;13.80;99.90
15625;DHT22;7912;51.376;6.126;2023-03-31T04:43:17;13.70;99.90
15625;DHT22;7912;51.376;6.126;2023-03-31T04:45:58;13.70;99.90
15625;DHT22;7912;51.376;6.126;2023-03-31T04:48:49;13.70;99.90
15625;DHT22;7912;51.376;6.126;2023-03-31T04:51:24;13.70;99.90
15625;DHT22;7912;51.376;6.126;2023-03-31T04:53:56;13.70;99.90
15625;DHT22;7912;51.376;6.126;2023-03-31T04:56:46;13.70;99.90
15625;DHT22;7912;51.376;6.126;2023-03-31T04:59:30;13.70;99.90
15625;DHT22;7912;51.376;6.126;2023-03-31T05:02:19;13.70;99.90
15625;DHT22;7912;51.376;6.126;2023-03-31T05:04:57;13.70;99.90
15625;DHT22;7912;51.376;6.126;2023-03-31T05:07:33;13.70;99.90
15625;DHT22;7912;51.376;6.126;2023-03-31T05:10:00;13.70;99.90
15625;DHT22;7912;51.376;6.126;2023-03-31T05:12:37;13.70;99.90
15625;DHT22;7912;51.376;6.126;2023-03-31T05:15:22;13.70;99.90
15625;DHT22;7912;51.376;6.126;2023-03-31T05:18:37;13.70;99.90
15625;DHT22;7912;51.376;6.126;2023-03-31T05:21:28;13.70;99.90
15625;DHT22;7912;51.376;6.126;2023-03-31T05:29:02;13.70;99.90
15625;DHT22;7912;51.376;6.126;2023-03-31T05:31:32;13.70;99.90
15625;DHT22;7912;51.376;6.126;2023-03-31T05:34:14;13.70;99.90
15625;DHT22;7912;51.376;6.126;2023-03-31T05:36:55;13.70;99.90
15625;DHT22;7912;51.376;6.126;2023-03-31T05:39:47;13.70;99.90
15625;DHT22;7912;51.376;6.126;2023-03-31T05:42:37;13.70;99.90
15625;DHT22;7912;51.376;6.126;2023-03-31T05:45:46;13.70;99.90
15625;DHT22;7912;51.376;6.126;2023-03-31T05:48:18;13.70;99.90
15625;DHT22;7912;51.376;6.126;2023-03-31T05:50:49;13.70;99.90
15625;DHT22;7912;51.376;6.126;2023-03-31T05:53:51;13.70;99.90
15625;DHT22;7912;51.376;6.126;2023-03-31T05:56:26;13.70;99.90
15625;DHT22;7912;51.376;6.126;2023-03-31T05:59:01;13.70;99.90
15625;DHT22;7912;51.376;6.126;2023-03-31T06:01:33;13.70;99.90
15625;DHT22;7912;51.376;6.126;2023-03-31T06:04:08;13.70;99.90
15625;DHT22;7912;51.376;6.126;2023-03-31T06:06:36;13.70;99.90
15625;DHT22;7912;51.376;6.126;2023-03-31T06:09:07;13.70;99.90
15625;DHT22;7912;51.376;6.126;2023-03-31T06:11:50;13.70;99.90
15625;DHT22;7912;51.376;6.126;2023-03-31T06:14:30;13.70;99.90
15625;DHT22;7912;51.376;6.126;2023-03-31T06:16:58;13.70;99.90
15625;DHT22;7912;51.376;6.126;2023-03-31T06:20:01;13.70;99.90
15625;DHT22;7912;51.376;6.126;2023-03-31T06:22:57;13.70;99.90
15625;DHT22;7912;51.376;6.126;2023-03-31T06:25:37;13.70;99.90
15625;DHT22;7912;51.376;6.126;2023-03-31T06:28:17;13.70;99.90
15625;DHT22;7912;51.376;6.126;2023-03-31T06:31:05;13.70;99.90
15625;DHT22;7912;51.376;6.126;2023-03-31T06:33:50;13.70;99.90
15625;DHT22;7912;51.376;6.126;2023-03-31T06:39:40;13.70;99.90
15625;DHT22;7912;51.376;6.126;2023-03-31T06:46:28;13.70;99.90
15625;DHT22;7912;51.376;6.126;2023-03-31T06:49:05;13.70;99.90
15625;DHT22;7912;51.376;6.126;2023-03-31T06:51:52;13.70;99.90
15625;DHT22;7912;51.376;6.126;2023-03-31T06:54:49;13.70;99.90
15625;DHT22;7912;51.376;6.126;2023-03-31T06:57:39;13.70;99.90
15625;DHT22;7912;51.376;6.126;2023-03-31T07:00:08;13.70;99.90
15625;DHT22;7912;51.376;6.126;2023-03-31T07:03:31;13.70;99.90
15625;DHT22;7912;51.376;6.126;2023-03-31T07:06:12;13.70;99.90
15625;DHT22;7912;51.376;6.126;2023-03-31T07:09:03;13.70;99.90
15625;DHT22;7912;51.376;6.126;2023-03-31T07:12:10;13.70;99.90
15625;DHT22;7912;51.376;6.126;2023-03-31T07:14:38;13.70;99.90
15625;DHT22;7912;51.376;6.126;2023-03-31T07:17:42;13.80;99.90
15625;DHT22;7912;51.376;6.126;2023-03-31T07:20:42;13.80;99.90
15625;DHT22;7912;51.376;6.126;2023-03-31T07:23:34;13.80;99.90
15625;DHT22;7912;51.376;6.126;2023-03-31T07:26:40;13.90;99.90
15625;DHT22;7912;51.376;6.126;2023-03-31T07:29:16;14.00;99.90
15625;DHT22;7912;51.376;6.126;2023-03-31T07:32:02;14.00;99.90
15625;DHT22;7912;51.376;6.126;2023-03-31T07:35:23;14.10;99.90
15625;DHT22;7912;51.376;6.126;2023-03-31T07:39:08;14.20;99.90
15625;DHT22;7912;51.376;6.126;2023-03-31T07:41:43;14.30;99.90
15625;DHT22;7912;51.376;6.126;2023-03-31T07:44:25;14.40;99.90
15625;DHT22;7912;51.376;6.126;2023-03-31T07:46:52;14.50;99.90
15625;DHT22;7912;51.376;6.126;2023-03-31T07:49:52;14.50;99.90
15625;DHT22;7912;51.376;6.126;2023-03-31T07:52:57;14.60;99.90
15625;DHT22;7912;51.376;6.126;2023-03-31T07:55:59;14.70;99.90
15625;DHT22;7912;51.376;6.126;2023-03-31T07:59:09;14.80;99.90
15625;DHT22;7912;51.376;6.126;2023-03-31T08:01:56;14.90;99.90
15625;DHT22;7912;51.376;6.126;2023-03-31T08:04:24;15.00;99.90
15625;DHT22;7912;51.376;6.126;2023-03-31T08:07:15;15.00;99.90
15625;DHT22;7912;51.376;6.126;2023-03-31T08:10:30;15.00;99.90
15625;DHT22;7912;51.376;6.126;2023-03-31T08:13:06;15.00;99.90
15625;DHT22;7912;51.376;6.126;2023-03-31T08:15:48;15.00;99.90
15625;DHT22;7912;51.376;6.126;2023-03-31T08:18:29;15.00;99.90
15625;DHT22;7912;51.376;6.126;2023-03-31T08:21:06;15.00;99.90
15625;DHT22;7912;51.376;6.126;2023-03-31T08:23:53;14.90;99.90
15625;DHT22;7912;51.376;6.126;2023-03-31T08:26:36;14.90;99.90
15625;DHT22;7912;51.376;6.126;2023-03-31T08:29:28;14.90;99.90
15625;DHT22;7912;51.376;6.126;2023-03-31T08:31:59;14.90;99.90
15625;DHT22;7912;51.376;6.126;2023-03-31T08:34:46;14.90;99.90
15625;DHT22;7912;51.376;6.126;2023-03-31T08:37:47;14.80;99.90
15625;DHT22;7912;51.376;6.126;2023-03-31T08:40:31;14.90;99.90
15625;DHT22;7912;51.376;6.126;2023-03-31T08:43:33;14.90;99.90
15625;DHT22;7912;51.376;6.126;2023-03-31T08:46:14;15.00;99.90
15625;DHT22;7912;51.376;6.126;2023-03-31T08:48:59;15.00;99.90
15625;DHT22;7912;51.376;6.126;2023-03-31T08:51:43;15.10;99.90
15625;DHT22;7912;51.376;6.126;2023-03-31T08:54:45;15.20;99.90
15625;DHT22;7912;51.376;6.126;2023-03-31T08:57:34;15.30;99.90
15625;DHT22;7912;51.376;6.126;2023-03-31T09:00:20;15.50;99.90
15625;DHT22;7912;51.376;6.126;2023-03-31T09:03:59;15.60;99.90
15625;DHT22;7912;51.376;6.126;2023-03-31T09:07:07;15.80;99.90
15625;DHT22;7912;51.376;6.126;2023-03-31T09:16:31;16.20;99.90
15625;DHT22;7912;51.376;6.126;2023-03-31T09:19:21;16.30;99.90
15625;DHT22;7912;51.376;6.126;2023-03-31T09:21:57;16.40;99.90
15625;DHT22;7912;51.376;6.126;2023-03-31T09:24:31;16.40;99.90
15625;DHT22;7912;51.376;6.126;2023-03-31T09:27:29;16.40;99.90
15625;DHT22;7912;51.376;6.126;2023-03-31T09:30:23;16.40;99.90
15625;DHT22;7912;51.376;6.126;2023-03-31T09:33:23;16.50;99.90
15625;DHT22;7912;51.376;6.126;2023-03-31T09:36:19;16.60;99.90
15625;DHT22;7912;51.376;6.126;2023-03-31T09:38:50;16.70;99.90
15625;DHT22;7912;51.376;6.126;2023-03-31T09:41:18;16.80;99.90
15625;DHT22;7912;51.376;6.126;2023-03-31T09:43:47;16.90;99.90
15625;DHT22;7912;51.376;6.126;2023-03-31T09:46:23;17.00;99.90
15625;DHT22;7912;51.376;6.126;2023-03-31T09:49:14;17.00;99.90
15625;DHT22;7912;51.376;6.126;2023-03-31T09:51:51;17.00;99.90
15625;DHT22;7912;51.376;6.126;2023-03-31T09:54:35;17.10;99.90
15625;DHT22;7912;51.376;6.126;2023-03-31T09:57:23;17.10;99.90
15625;DHT22;7912;51.376;6.126;2023-03-31T10:00:17;17.20;99.90
15625;DHT22;7912;51.376;6.126;2023-03-31T10:02:52;17.40;99.90
15625;DHT22;7912;51.376;6.126;2023-03-31T10:05:26;17.50;99.90
15625;DHT22;7912;51.376;6.126;2023-03-31T10:13:47;17.80;99.90
15625;DHT22;7912;51.376;6.126;2023-03-31T10:19:22;17.80;99.90
15625;DHT22;7912;51.376;6.126;2023-03-31T10:22:04;17.70;99.90
15625;DHT22;7912;51.376;6.126;2023-03-31T10:24:47;17.50;99.90
15625;DHT22;7912;51.376;6.126;2023-03-31T10:27:27;17.30;99.90
15625;DHT22;7912;51.376;6.126;2023-03-31T10:29:58;17.10;99.90
15625;DHT22;7912;51.376;6.126;2023-03-31T10:32:33;16.90;99.90
15625;DHT22;7912;51.376;6.126;2023-03-31T10:35:36;16.90;99.90
15625;DHT22;7912;51.376;6.126;2023-03-31T10:38:09;16.80;99.90
15625;DHT22;7912;51.376;6.126;2023-03-31T10:40:53;16.80;99.90
15625;DHT22;7912;51.376;6.126;2023-03-31T10:43:27;16.80;99.90
15625;DHT22;7912;51.376;6.126;2023-03-31T10:46:08;16.80;99.90
15625;DHT22;7912;51.376;6.126;2023-03-31T10:48:40;16.90;99.90
15625;DHT22;7912;51.376;6.126;2023-03-31T10:51:29;16.90;99.90
15625;DHT22;7912;51.376;6.126;2023-03-31T10:54:00;17.00;99.90
15625;DHT22;7912;51.376;6.126;2023-03-31T10:56:37;17.10;99.90
15625;DHT22;7912;51.376;6.126;2023-03-31T11:05:52;17.40;99.90
15625;DHT22;7912;51.376;6.126;2023-03-31T11:14:18;17.70;99.90
15625;DHT22;7912;51.376;6.126;2023-03-31T11:20:38;18.00;99.90
15625;DHT22;7912;51.376;6.126;2023-03-31T11:23:25;18.20;99.90
15625;DHT22;7912;51.376;6.126;2023-03-31T11:26:16;18.20;99.90
15625;DHT22;7912;51.376;6.126;2023-03-31T11:41:27;18.50;99.90
15625;DHT22;7912;51.376;6.126;2023-03-31T11:44:11;18.50;99.90
15625;DHT22;7912;51.376;6.126;2023-03-31T11:46:56;18.50;99.90
15625;DHT22;7912;51.376;6.126;2023-03-31T11:49:29;18.40;99.90
15625;DHT22;7912;51.376;6.126;2023-03-31T11:52:16;18.30;99.90
15625;DHT22;7912;51.376;6.126;2023-03-31T11:54:55;18.30;99.90
15625;DHT22;7912;51.376;6.126;2023-03-31T12:01:20;18.30;99.90
15625;DHT22;7912;51.376;6.126;2023-03-31T12:10:11;18.70;99.90
15625;DHT22;7912;51.376;6.126;2023-03-31T12:13:00;18.70;99.90
15625;DHT22;7912;51.376;6.126;2023-03-31T12:18:55;18.80;99.90
15625;DHT22;7912;51.376;6.126;2023-03-31T12:21:48;18.90;99.90
15625;DHT22;7912;51.376;6.126;2023-03-31T12:24:30;18.90;99.90
15625;DHT22;7912;51.376;6.126;2023-03-31T12:27:10;19.00;99.90
15625;DHT22;7912;51.376;6.126;2023-03-31T12:30:04;19.10;99.90
15625;DHT22;7912;51.376;6.126;2023-03-31T12:32:37;19.10;99.90
15625;DHT22;7912;51.376;6.126;2023-03-31T12:35:35;19.10;99.90
15625;DHT22;7912;51.376;6.126;2023-03-31T12:41:27;19.10;99.90
15625;DHT22;7912;51.376;6.126;2023-03-31T12:46:57;19.10;99.90
15625;DHT22;7912;51.376;6.126;2023-03-31T12:52:57;18.90;99.90
15625;DHT22;7912;51.376;6.126;2023-03-31T12:55:40;18.90;99.90
15625;DHT22;7912;51.376;6.126;2023-03-31T13:01:09;18.70;99.90
15625;DHT22;7912;51.376;6.126;2023-03-31T13:09:06;18.90;99.90
15625;DHT22;7912;51.376;6.126;2023-03-31T13:12:18;18.90;99.90
15625;DHT22;7912;51.376;6.126;2023-03-31T13:14:49;19.00;99.90
15625;DHT22;7912;51.376;6.126;2023-03-31T13:20:25;19.10;99.90
15625;DHT22;7912;51.376;6.126;2023-03-31T13:28:39;19.10;99.90
15625;DHT22;7912;51.376;6.126;2023-03-31T13:31:13;19.10;99.90
15625;DHT22;7912;51.376;6.126;2023-03-31T13:33:53;19.00;99.90
15625;DHT22;7912;51.376;6.126;2023-03-31T13:36:54;19.00;99.90
15625;DHT22;7912;51.376;6.126;2023-03-31T13:39:55;19.00;99.90
15625;DHT22;7912;51.376;6.126;2023-03-31T13:49:12;19.00;99.90
15625;DHT22;7912;51.376;6.126;2023-03-31T13:52:12;18.90;99.90
15625;DHT22;7912;51.376;6.126;2023-03-31T13:55:17;18.80;99.90
15625;DHT22;7912;51.376;6.126;2023-03-31T14:07:26;17.80;99.90
15625;DHT22;7912;51.376;6.126;2023-03-31T14:09:58;17.60;99.90
15625;DHT22;7912;51.376;6.126;2023-03-31T14:12:34;17.40;99.90
15625;DHT22;7912;51.376;6.126;2023-03-31T14:15:05;17.30;99.90
15625;DHT22;7912;51.376;6.126;2023-03-31T14:17:36;17.10;99.90
15625;DHT22;7912;51.376;6.126;2023-03-31T14:20:26;17.00;99.90
15625;DHT22;7912;51.376;6.126;2023-03-31T14:23:41;16.90;99.90
15625;DHT22;7912;51.376;6.126;2023-03-31T14:33:00;16.90;99.90
15625;DHT22;7912;51.376;6.126;2023-03-31T14:36:16;17.00;99.90
15625;DHT22;7912;51.376;6.126;2023-03-31T14:39:08;17.10;99.90
15625;DHT22;7912;51.376;6.126;2023-03-31T14:41:37;17.20;99.90
15625;DHT22;7912;51.376;6.126;2023-03-31T14:44:10;17.20;99.90
15625;DHT22;7912;51.376;6.126;2023-03-31T14:46:45;17.30;99.90
15625;DHT22;7912;51.376;6.126;2023-03-31T14:49:25;17.30;99.90
15625;DHT22;7912;51.376;6.126;2023-03-31T14:52:20;17.30;99.90
15625;DHT22;7912;51.376;6.126;2023-03-31T14:54:52;17.40;99.90
15625;DHT22;7912;51.376;6.126;2023-03-31T14:57:24;17.40;99.90
15625;DHT22;7912;51.376;6.126;2023-03-31T15:00:04;17.40;99.90
15625;DHT22;7912;51.376;6.126;2023-03-31T15:02:36;17.40;99.90
15625;DHT22;7912;51.376;6.126;2023-03-31T15:05:35;17.50;99.90
15625;DHT22;7912;51.376;6.126;2023-03-31T15:08:07;17.50;99.90
15625;DHT22;7912;51.376;6.126;2023-03-31T15:10:44;17.50;99.90
15625;DHT22;7912;51.376;6.126;2023-03-31T15:13:35;17.50;99.90
15625;DHT22;7912;51.376;6.126;2023-03-31T15:16:42;17.50;99.90
15625;DHT22;7912;51.376;6.126;2023-03-31T15:19:15;17.50;99.90
15625;DHT22;7912;51.376;6.126;2023-03-31T15:21:53;17.40;99.90
15625;DHT22;7912;51.376;6.126;2023-03-31T15:24:28;17.40;99.90
15625;DHT22;7912;51.376;6.126;2023-03-31T15:27:04;17.30;99.90
15625;DHT22;7912;51.376;6.126;2023-03-31T15:29:50;17.20;99.90
15625;DHT22;7912;51.376;6.126;2023-03-31T15:34:55;17.10;99.90
15625;DHT22;7912;51.376;6.126;2023-03-31T15:37:42;17.00;99.90
15625;DHT22;7912;51.376;6.126;2023-03-31T15:40:28;16.90;99.90
15625;DHT22;7912;51.376;6.126;2023-03-31T15:43:04;16.80;99.90
15625;DHT22;7912;51.376;6.126;2023-03-31T15:45:51;16.70;99.90
15625;DHT22;7912;51.376;6.126;2023-03-31T15:48:37;16.60;99.90
15625;DHT22;7912;51.376;6.126;2023-03-31T15:51:20;16.50;99.90
15625;DHT22;7912;51.376;6.126;2023-03-31T15:53:59;16.30;99.90
15625;DHT22;7912;51.376;6.126;2023-03-31T15:56:34;16.20;99.90
15625;DHT22;7912;51.376;6.126;2023-03-31T15:59:28;16.10;99.90
15625;DHT22;7912;51.376;6.126;2023-03-31T16:02:15;15.90;99.90
15625;DHT22;7912;51.376;6.126;2023-03-31T16:04:55;15.80;99.90
15625;DHT22;7912;51.376;6.126;2023-03-31T16:07:32;15.80;99.90
15625;DHT22;7912;51.376;6.126;2023-03-31T16:10:14;15.70;99.90
15625;DHT22;7912;51.376;6.126;2023-03-31T16:13:08;15.70;99.90
15625;DHT22;7912;51.376;6.126;2023-03-31T16:15:47;15.60;99.90
15625;DHT22;7912;51.376;6.126;2023-03-31T16:18:28;15.60;99.90
15625;DHT22;7912;51.376;6.126;2023-03-31T16:21:01;15.60;99.90
15625;DHT22;7912;51.376;6.126;2023-03-31T16:23:36;15.60;99.90
15625;DHT22;7912;51.376;6.126;2023-03-31T16:26:07;15.60;99.90
15625;DHT22;7912;51.376;6.126;2023-03-31T16:28:36;15.60;99.90
15625;DHT22;7912;51.376;6.126;2023-03-31T16:31:04;15.50;99.90
15625;DHT22;7912;51.376;6.126;2023-03-31T16:34:18;15.50;99.90
15625;DHT22;7912;51.376;6.126;2023-03-31T16:36:45;15.50;99.90
15625;DHT22;7912;51.376;6.126;2023-03-31T16:39:13;15.40;99.90
15625;DHT22;7912;51.376;6.126;2023-03-31T16:41:41;15.40;99.90
15625;DHT22;7912;51.376;6.126;2023-03-31T16:44:08;15.30;99.90
15625;DHT22;7912;51.376;6.126;2023-03-31T16:46:36;15.30;99.90
15625;DHT22;7912;51.376;6.126;2023-03-31T16:49:06;15.20;99.90
15625;DHT22;7912;51.376;6.126;2023-03-31T16:51:33;15.20;99.90
15625;DHT22;7912;51.376;6.126;2023-03-31T16:54:01;15.10;99.90
15625;DHT22;7912;51.376;6.126;2023-03-31T16:56:28;15.10;99.90
15625;DHT22;7912;51.376;6.126;2023-03-31T16:58:56;15.00;99.90
15625;DHT22;7912;51.376;6.126;2023-03-31T17:01:23;15.00;99.90
15625;DHT22;7912;51.376;6.126;2023-03-31T17:03:51;14.90;99.90
15625;DHT22;7912;51.376;6.126;2023-03-31T17:06:18;14.80;99.90
15625;DHT22;7912;51.376;6.126;2023-03-31T17:08:46;14.80;99.90
15625;DHT22;7912;51.376;6.126;2023-03-31T17:11:14;14.80;99.90
15625;DHT22;7912;51.376;6.126;2023-03-31T17:13:42;14.70;99.90
15625;DHT22;7912;51.376;6.126;2023-03-31T17:16:12;14.70;99.90
15625;DHT22;7912;51.376;6.126;2023-03-31T17:18:52;14.70;99.90
15625;DHT22;7912;51.376;6.126;2023-03-31T17:21:20;14.70;99.90
15625;DHT22;7912;51.376;6.126;2023-03-31T17:23:47;14.70;99.90
15625;DHT22;7912;51.376;6.126;2023-03-31T17:26:16;14.70;99.90
15625;DHT22;7912;51.376;6.126;2023-03-31T17:28:46;14.70;99.90
15625;DHT22;7912;51.376;6.126;2023-03-31T17:31:18;14.70;99.90
15625;DHT22;7912;51.376;6.126;2023-03-31T17:33:47;14.60;99.90
15625;DHT22;7912;51.376;6.126;2023-03-31T17:36:16;14.70;99.90
15625;DHT22;7912;51.376;6.126;2023-03-31T17:38:46;14.70;99.90
15625;DHT22;7912;51.376;6.126;2023-03-31T17:41:14;14.60;99.90
15625;DHT22;7912;51.376;6.126;2023-03-31T17:43:48;14.60;99.90
15625;DHT22;7912;51.376;6.126;2023-03-31T17:46:18;14.60;99.90
15625;DHT22;7912;51.376;6.126;2023-03-31T17:48:47;14.60;99.90
15625;DHT22;7912;51.376;6.126;2023-03-31T17:51:17;14.50;99.90
15625;DHT22;7912;51.376;6.126;2023-03-31T17:53:46;14.50;99.90
15625;DHT22;7912;51.376;6.126;2023-03-31T17:56:14;14.40;99.90
15625;DHT22;7912;51.376;6.126;2023-03-31T17:58:44;14.40;99.90
15625;DHT22;7912;51.376;6.126;2023-03-31T18:01:13;14.40;99.90
15625;DHT22;7912;51.376;6.126;2023-03-31T18:03:41;14.40;99.90
15625;DHT22;7912;51.376;6.126;2023-03-31T18:06:14;14.40;99.90
15625;DHT22;7912;51.376;6.126;2023-03-31T18:08:46;14.30;99.90
15625;DHT22;7912;51.376;6.126;2023-03-31T18:11:14;14.30;99.90
15625;DHT22;7912;51.376;6.126;2023-03-31T18:13:42;14.30;99.90
15625;DHT22;7912;51.376;6.126;2023-03-31T18:16:10;14.30;99.90
15625;DHT22;7912;51.376;6.126;2023-03-31T18:18:40;14.20;99.90
15625;DHT22;7912;51.376;6.126;2023-03-31T18:21:11;14.20;99.90
15625;DHT22;7912;51.376;6.126;2023-03-31T18:23:39;14.20;99.90
15625;DHT22;7912;51.376;6.126;2023-03-31T18:26:11;14.20;99.90
15625;DHT22;7912;51.376;6.126;2023-03-31T18:28:39;14.20;99.90
15625;DHT22;7912;51.376;6.126;2023-03-31T18:31:07;14.20;99.90
15625;DHT22;7912;51.376;6.126;2023-03-31T18:33:36;14.10;99.90
15625;DHT22;7912;51.376;6.126;2023-03-31T18:36:05;14.20;99.90
15625;DHT22;7912;51.376;6.126;2023-03-31T18:38:34;14.20;99.90
15625;DHT22;7912;51.376;6.126;2023-03-31T18:41:03;14.20;99.90
15625;DHT22;7912;51.376;6.126;2023-03-31T18:43:30;14.20;99.90
15625;DHT22;7912;51.376;6.126;2023-03-31T18:45:59;14.20;99.90
15625;DHT22;7912;51.376;6.126;2023-03-31T18:48:27;14.20;99.90
15625;DHT22;7912;51.376;6.126;2023-03-31T18:50:55;14.20;99.90
15625;DHT22;7912;51.376;6.126;2023-03-31T18:53:23;14.20;99.90
15625;DHT22;7912;51.376;6.126;2023-03-31T18:55:55;14.20;99.90
15625;DHT22;7912;51.376;6.126;2023-03-31T18:58:30;14.20;99.90
15625;DHT22;7912;51.376;6.126;2023-03-31T19:00:58;14.20;99.90
15625;DHT22;7912;51.376;6.126;2023-03-31T19:03:29;14.20;99.90
15625;DHT22;7912;51.376;6.126;2023-03-31T19:06:06;14.30;99.90
15625;DHT22;7912;51.376;6.126;2023-03-31T19:08:41;14.30;99.90
15625;DHT22;7912;51.376;6.126;2023-03-31T19:11:14;14.30;99.90
15625;DHT22;7912;51.376;6.126;2023-03-31T19:13:43;14.30;99.90
15625;DHT22;7912;51.376;6.126;2023-03-31T19:16:13;14.20;99.90
15625;DHT22;7912;51.376;6.126;2023-03-31T19:18:41;14.30;99.90
15625;DHT22;7912;51.376;6.126;2023-03-31T19:21:09;14.30;99.90
15625;DHT22;7912;51.376;6.126;2023-03-31T19:23:38;14.20;99.90
15625;DHT22;7912;51.376;6.126;2023-03-31T19:26:06;14.20;99.90
15625;DHT22;7912;51.376;6.126;2023-03-31T19:28:34;14.20;99.90
15625;DHT22;7912;51.376;6.126;2023-03-31T19:31:05;14.20;99.90
15625;DHT22;7912;51.376;6.126;2023-03-31T19:33:33;14.10;99.90
15625;DHT22;7912;51.376;6.126;2023-03-31T19:36:01;14.10;99.90
15625;DHT22;7912;51.376;6.126;2023-03-31T19:38:28;14.10;99.90
15625;DHT22;7912;51.376;6.126;2023-03-31T19:40:58;14.10;99.90
15625;DHT22;7912;51.376;6.126;2023-03-31T19:43:31;14.10;99.90
15625;DHT22;7912;51.376;6.126;2023-03-31T19:45:59;14.00;99.90
15625;DHT22;7912;51.376;6.126;2023-03-31T19:48:46;14.00;99.90
15625;DHT22;7912;51.376;6.126;2023-03-31T19:51:13;14.00;99.90
15625;DHT22;7912;51.376;6.126;2023-03-31T19:53:44;14.00;99.90
15625;DHT22;7912;51.376;6.126;2023-03-31T19:56:15;14.00;99.90
15625;DHT22;7912;51.376;6.126;2023-03-31T19:58:44;14.00;99.90
15625;DHT22;7912;51.376;6.126;2023-03-31T20:01:23;14.00;99.90
15625;DHT22;7912;51.376;6.126;2023-03-31T20:03:52;14.00;99.90
15625;DHT22;7912;51.376;6.126;2023-03-31T20:06:26;14.00;99.90
15625;DHT22;7912;51.376;6.126;2023-03-31T20:08:59;14.00;99.90
15625;DHT22;7912;51.376;6.126;2023-03-31T20:11:28;14.00;99.90
15625;DHT22;7912;51.376;6.126;2023-03-31T20:13:57;14.00;99.90
15625;DHT22;7912;51.376;6.126;2023-03-31T20:16:26;14.00;99.90
15625;DHT22;7912;51.376;6.126;2023-03-31T20:19:01;14.00;99.90
15625;DHT22;7912;51.376;6.126;2023-03-31T20:21:32;14.00;99.90
15625;DHT22;7912;51.376;6.126;2023-03-31T20:24:01;14.00;99.90
15625;DHT22;7912;51.376;6.126;2023-03-31T20:26:30;14.00;99.90
15625;DHT22;7912;51.376;6.126;2023-03-31T20:29:00;14.00;99.90
15625;DHT22;7912;51.376;6.126;2023-03-31T20:31:31;14.00;99.90
15625;DHT22;7912;51.376;6.126;2023-03-31T20:34:03;13.90;99.90
15625;DHT22;7912;51.376;6.126;2023-03-31T20:36:32;14.00;99.90
15625;DHT22;7912;51.376;6.126;2023-03-31T20:38:59;14.00;99.90
15625;DHT22;7912;51.376;6.126;2023-03-31T20:42:03;13.90;99.90
15625;DHT22;7912;51.376;6.126;2023-03-31T20:44:32;13.90;99.90
15625;DHT22;7912;51.376;6.126;2023-03-31T20:46:59;13.90;99.90
15625;DHT22;7912;51.376;6.126;2023-03-31T20:49:27;13.90;99.90
15625;DHT22;7912;51.376;6.126;2023-03-31T20:51:55;13.90;99.90
15625;DHT22;7912;51.376;6.126;2023-03-31T20:54:23;13.90;99.90
15625;DHT22;7912;51.376;6.126;2023-03-31T20:56:52;13.80;99.90
15625;DHT22;7912;51.376;6.126;2023-03-31T20:59:20;13.90;99.90
15625;DHT22;7912;51.376;6.126;2023-03-31T21:01:48;13.80;99.90
15625;DHT22;7912;51.376;6.126;2023-03-31T21:04:16;13.90;99.90
15625;DHT22;7912;51.376;6.126;2023-03-31T21:06:45;13.80;99.90
15625;DHT22;7912;51.376;6.126;2023-03-31T21:09:14;13.80;99.90
15625;DHT22;7912;51.376;6.126;2023-03-31T21:11:42;13.80;99.90
15625;DHT22;7912;51.376;6.126;2023-03-31T21:14:12;13.80;99.90
15625;DHT22;7912;51.376;6.126;2023-03-31T21:16:41;13.80;99.90
15625;DHT22;7912;51.376;6.126;2023-03-31T21:19:09;13.80;99.90